createdAt,value
2022-09-06T00:00:34.394Z,100106.03
2022-09-06T00:03:03.819Z,100104.53
2022-09-06T00:05:33.138Z,100093.03
2022-09-06T00:08:02.645Z,100103.38
2022-09-06T00:10:32.079Z,100098.25
2022-09-06T00:13:04.178Z,100097.16
2022-09-06T00:15:33.336Z,100100.50
2022-09-06T00:18:03.168Z,100092.72
2022-09-06T00:20:32.443Z,100101.19
2022-09-06T00:23:04.924Z,100095.25
2022-09-06T00:25:34.042Z,100101.37
2022-09-06T00:28:06.891Z,100098.41
2022-09-06T00:30:35.816Z,100107.69
2022-09-06T00:33:05.161Z,100099.72
2022-09-06T00:35:33.760Z,100108.72
2022-09-06T00:38:03.299Z,100101.03
2022-09-06T00:40:35.780Z,100103.97
2022-09-06T00:43:05.939Z,100109.31
2022-09-06T00:45:35.081Z,100097.28
2022-09-06T00:48:05.563Z,100099.19
2022-09-06T00:50:34.421Z,100112.63
2022-09-06T00:53:03.407Z,100100.94
2022-09-06T00:55:32.129Z,100105.19
2022-09-06T00:58:00.719Z,100102.19
2022-09-06T01:00:31.042Z,100105.09
2022-09-06T01:02:59.724Z,100102.41
2022-09-06T01:05:33.473Z,100105.47
2022-09-06T01:08:09.766Z,100111.09
2022-09-06T01:10:55.270Z,100100.12
2022-09-06T01:13:32.253Z,100101.00
2022-09-06T01:16:08.165Z,100096.00
2022-09-06T01:18:50.607Z,100095.16
2022-09-06T01:21:29.738Z,100098.63
2022-09-06T01:24:20.714Z,100103.41
2022-09-06T01:27:24.611Z,100099.50
2022-09-06T01:29:58.851Z,100094.59
2022-09-06T01:32:30.780Z,100084.59
2022-09-06T01:35:05.096Z,100094.63
2022-09-06T01:37:33.912Z,100091.66
2022-09-06T01:40:03.221Z,100086.56
2022-09-06T01:42:33.109Z,100090.38
2022-09-06T01:45:04.987Z,100094.13
2022-09-06T01:47:39.867Z,100088.78
2022-09-06T01:50:36.764Z,100093.28
2022-09-06T01:53:13.781Z,100086.78
2022-09-06T01:55:47.989Z,100084.13
2022-09-06T01:58:29.405Z,100078.69
2022-09-06T02:01:00.484Z,100082.25
2022-09-06T02:03:33.400Z,100078.53
2022-09-06T02:06:05.822Z,100085.03
2022-09-06T02:08:37.641Z,100084.37
2022-09-06T02:11:08.897Z,100082.59
2022-09-06T02:13:45.088Z,100085.22
2022-09-06T02:16:21.435Z,100082.31
2022-09-06T02:18:53.740Z,100083.75
2022-09-06T02:21:26.041Z,100077.34
2022-09-06T02:23:57.445Z,100080.47
2022-09-06T02:26:26.547Z,100078.69
2022-09-06T02:28:55.760Z,100075.78
2022-09-06T02:31:28.803Z,100077.22
2022-09-06T02:33:57.776Z,100068.31
2022-09-06T02:36:26.754Z,100075.63
2022-09-06T02:38:55.789Z,100070.78
2022-09-06T02:41:25.427Z,100073.50
2022-09-06T02:43:54.016Z,100078.69
2022-09-06T02:46:24.443Z,100081.63
2022-09-06T02:48:54.801Z,100072.50
2022-09-06T02:51:23.389Z,100070.22
2022-09-06T02:53:52.013Z,100069.12
2022-09-06T02:56:20.911Z,100069.84
2022-09-06T02:58:49.948Z,100073.47
2022-09-06T03:01:18.574Z,100067.81
2022-09-06T03:03:49.223Z,100058.19
2022-09-06T03:06:19.181Z,100063.31
2022-09-06T03:08:48.070Z,100063.25
2022-09-06T03:11:16.655Z,100057.19
2022-09-06T03:13:45.274Z,100057.56
2022-09-06T03:16:14.187Z,100054.09
2022-09-06T03:18:42.880Z,100060.31
2022-09-06T03:21:11.842Z,100061.31
2022-09-06T03:23:42.149Z,100058.97
2022-09-06T03:26:10.765Z,100056.50
2022-09-06T03:28:39.585Z,100056.69
2022-09-06T03:31:08.531Z,100056.91
2022-09-06T03:33:37.290Z,100059.06
2022-09-06T03:36:06.097Z,100063.19
2022-09-06T03:38:35.087Z,100053.28
2022-09-06T03:41:05.066Z,100061.37
2022-09-06T03:43:33.990Z,100055.06
2022-09-06T03:46:02.930Z,100057.63
2022-09-06T03:48:35.953Z,100062.03
2022-09-06T03:51:04.853Z,100061.97
2022-09-06T03:53:33.490Z,100061.91
2022-09-06T03:56:02.096Z,100068.28
2022-09-06T03:58:33.219Z,100069.44
2022-09-06T04:01:06.544Z,100067.72
2022-09-06T04:03:36.402Z,100066.56
2022-09-06T04:06:06.177Z,100069.00
2022-09-06T04:08:35.708Z,100064.59
2022-09-06T04:11:04.966Z,100070.44
2022-09-06T04:13:35.981Z,100063.31
2022-09-06T04:16:05.641Z,100058.63
2022-09-06T04:18:34.376Z,100067.87
2022-09-06T04:21:03.044Z,100059.66
2022-09-06T04:23:34.290Z,100060.81
2022-09-06T04:26:05.316Z,100067.28
2022-09-06T04:28:35.586Z,100072.13
2022-09-06T04:31:05.528Z,100074.75
2022-09-06T04:33:35.740Z,100081.13
2022-09-06T04:36:06.742Z,100082.59
2022-09-06T04:38:42.036Z,100075.00
2022-09-06T04:41:11.489Z,100075.31
2022-09-06T04:43:41.744Z,100066.69
2022-09-06T04:46:15.077Z,100070.19
2022-09-06T04:48:44.020Z,100074.63
2022-09-06T04:51:12.618Z,100066.75
2022-09-06T04:53:41.763Z,100066.38
2022-09-06T04:56:16.029Z,100061.75
2022-09-06T04:58:47.393Z,100061.47
2022-09-06T05:01:17.210Z,100060.53
2022-09-06T05:03:45.934Z,100060.81
2022-09-06T05:06:19.176Z,100062.31
2022-09-06T05:08:48.366Z,100064.53
2022-09-06T05:11:17.373Z,100069.22
2022-09-06T05:13:48.201Z,100076.81
2022-09-06T05:16:17.050Z,100075.47
2022-09-06T05:18:45.611Z,100062.53
2022-09-06T05:21:14.277Z,100069.66
2022-09-06T05:23:43.353Z,100070.28
2022-09-06T05:26:11.924Z,100068.16
2022-09-06T05:28:42.791Z,100072.16
2022-09-06T05:31:13.272Z,100071.78
2022-09-06T05:33:41.830Z,100072.84
2022-09-06T05:36:11.383Z,100071.03
2022-09-06T05:38:40.265Z,100065.88
2022-09-06T05:41:08.864Z,100071.94
2022-09-06T05:43:37.495Z,100075.47
2022-09-06T05:46:06.762Z,100070.78
2022-09-06T05:48:37.424Z,100082.53
2022-09-06T05:51:08.121Z,100080.69
2022-09-06T05:53:37.333Z,100077.34
2022-09-06T05:56:07.393Z,100076.09
2022-09-06T05:58:36.233Z,100069.12
2022-09-06T06:01:09.986Z,100071.19
2022-09-06T06:03:40.270Z,100074.09
2022-09-06T06:06:08.980Z,100073.56
2022-09-06T06:08:37.616Z,100071.66
2022-09-06T06:11:06.763Z,100073.97
2022-09-06T06:13:39.493Z,100073.47
2022-09-06T06:16:11.732Z,100081.56
2022-09-06T06:18:41.841Z,100065.59
2022-09-06T06:21:12.610Z,100072.19
2022-09-06T06:23:42.713Z,100074.19
2022-09-06T06:26:12.070Z,100066.91
2022-09-06T06:28:41.357Z,100073.41
2022-09-06T06:31:12.139Z,100074.87
2022-09-06T06:33:42.664Z,100074.66
2022-09-06T06:36:21.792Z,100075.59
2022-09-06T06:38:52.143Z,100069.53
2022-09-06T06:41:23.951Z,100077.69
2022-09-06T06:43:53.872Z,100066.69
2022-09-06T06:46:23.998Z,100075.53
2022-09-06T06:48:55.485Z,100077.06
2022-09-06T06:51:25.600Z,100073.78
2022-09-06T06:53:54.471Z,100076.28
2022-09-06T06:56:24.541Z,100087.87
2022-09-06T06:58:54.728Z,100089.44
2022-09-06T07:01:23.897Z,100094.16
2022-09-06T07:03:54.834Z,100094.84
2022-09-06T07:09:12.654Z,100090.84
2022-09-06T07:11:41.523Z,100093.06
2022-09-06T07:14:10.154Z,100097.47
2022-09-06T07:16:38.818Z,100091.37
2022-09-06T07:22:01.466Z,100095.75
2022-09-06T07:24:33.437Z,100104.56
2022-09-06T07:29:50.937Z,100105.72
2022-09-06T07:32:19.578Z,100106.06
2022-09-06T07:34:49.627Z,100107.41
2022-09-06T07:37:18.575Z,100104.16
2022-09-06T07:39:47.282Z,100105.84
2022-09-06T07:42:16.670Z,100100.56
2022-09-06T07:44:45.538Z,100103.41
2022-09-06T07:53:15.035Z,100105.75
2022-09-06T07:55:44.464Z,100102.50
2022-09-06T07:58:13.068Z,100101.59
2022-09-06T08:00:41.978Z,100100.50
2022-09-06T08:03:10.951Z,100106.62
2022-09-06T08:11:18.904Z,100100.25
2022-09-06T08:13:51.317Z,100112.59
2022-09-06T08:16:20.281Z,100102.50
2022-09-06T08:18:52.026Z,100106.47
2022-09-06T08:21:23.646Z,100091.41
2022-09-06T08:23:54.439Z,100088.75
2022-09-06T08:26:24.837Z,100093.47
2022-09-06T08:28:58.902Z,100094.50
2022-09-06T08:31:28.579Z,100093.88
2022-09-06T08:33:58.052Z,100093.84
2022-09-06T08:36:29.724Z,100092.38
2022-09-06T08:38:59.116Z,100082.25
2022-09-06T08:41:29.455Z,100085.25
2022-09-06T08:46:54.531Z,100080.41
2022-09-06T08:49:23.825Z,100086.28
2022-09-06T08:52:07.940Z,100085.50
2022-09-06T08:54:39.996Z,100084.03
2022-09-06T08:57:14.507Z,100078.94
2022-09-06T08:59:44.156Z,100072.22
2022-09-06T09:02:14.759Z,100079.41
2022-09-06T09:04:44.723Z,100079.88
2022-09-06T09:07:28.206Z,100067.97
2022-09-06T09:09:57.423Z,100072.34
2022-09-06T09:12:26.466Z,100070.97
2022-09-06T09:15:00.153Z,100073.22
2022-09-06T09:17:30.895Z,100067.44
2022-09-06T09:19:59.677Z,100061.63
2022-09-06T09:22:29.749Z,100055.66
2022-09-06T09:25:00.322Z,100051.75
2022-09-06T09:27:29.701Z,100057.66
2022-09-06T09:32:51.480Z,100048.94
2022-09-06T09:35:23.537Z,100036.81
2022-09-06T09:38:07.772Z,100038.00
2022-09-06T09:40:41.945Z,100031.62
2022-09-06T09:43:15.249Z,100032.28
2022-09-06T09:45:44.819Z,100019.94
2022-09-06T09:48:28.002Z,100029.56
2022-09-06T09:50:57.128Z,100024.13
2022-09-06T09:53:27.301Z,100019.94
2022-09-06T09:55:57.322Z,100014.84
2022-09-06T09:58:33.160Z,100015.38
2022-09-06T10:01:13.628Z,100012.31
2022-09-06T10:09:32.296Z,100005.16
2022-09-06T10:12:01.677Z,99993.59
2022-09-06T10:14:32.231Z,99998.69
2022-09-06T10:17:01.595Z,99994.16
2022-09-06T10:19:39.299Z,99994.56
2022-09-06T10:22:15.237Z,99990.31
2022-09-06T10:24:54.767Z,99986.66
2022-09-06T10:27:27.323Z,99988.38
2022-09-06T10:29:59.735Z,99975.53
2022-09-06T10:32:38.627Z,99977.78
2022-09-06T10:35:13.116Z,99976.09
2022-09-06T10:37:49.464Z,99979.13
2022-09-06T10:40:29.610Z,99979.00
2022-09-06T10:42:59.240Z,99968.09
2022-09-06T10:45:39.532Z,99960.22
2022-09-06T10:48:14.928Z,99957.91
2022-09-06T10:50:49.943Z,99959.97
2022-09-06T10:53:33.178Z,99966.25
2022-09-06T10:56:12.632Z,99966.88
2022-09-06T11:01:39.727Z,99965.28
2022-09-06T11:04:12.880Z,99972.81
2022-09-06T11:06:45.694Z,99975.50
2022-09-06T11:09:22.245Z,99974.72
2022-09-06T11:11:59.681Z,99973.66
2022-09-06T11:14:28.800Z,99965.34
2022-09-06T11:17:01.021Z,99970.63
2022-09-06T11:19:33.582Z,99957.38
2022-09-06T11:22:39.289Z,99953.53
2022-09-06T11:25:35.110Z,99945.44
2022-09-06T11:28:08.495Z,99953.31
2022-09-06T11:30:37.334Z,99952.16
2022-09-06T11:33:12.411Z,99950.38
2022-09-06T11:35:42.588Z,99941.88
2022-09-06T11:38:22.026Z,99938.19
2022-09-06T11:40:55.871Z,99932.78
2022-09-06T11:43:44.536Z,99932.03
2022-09-06T11:46:54.409Z,99927.28
2022-09-06T11:49:41.846Z,99928.31
2022-09-06T11:52:59.850Z,99930.28
2022-09-06T11:55:36.563Z,99925.06
2022-09-06T11:58:10.228Z,99915.66
2022-09-06T12:00:40.468Z,99914.38
2022-09-06T12:06:16.630Z,99902.31
2022-09-06T12:08:45.687Z,99903.00
2022-09-06T12:11:34.857Z,99903.16
2022-09-06T12:14:06.523Z,99898.06
2022-09-06T12:17:30.377Z,99890.06
2022-09-06T12:20:06.995Z,99889.78
2022-09-06T12:22:55.330Z,99878.41
2022-09-06T12:25:58.045Z,99880.66
2022-09-06T12:28:49.745Z,99883.41
2022-09-06T12:31:29.536Z,99872.09
2022-09-06T12:33:59.216Z,99864.84
2022-09-06T12:36:32.074Z,99861.75
2022-09-06T12:39:02.191Z,99860.59
2022-09-06T12:41:32.783Z,99855.25
2022-09-06T12:44:02.918Z,99851.84
2022-09-06T12:46:32.827Z,99854.59
2022-09-06T12:49:06.901Z,99840.16
2022-09-06T12:51:37.918Z,99848.41
2022-09-06T12:54:17.225Z,99841.37
2022-09-06T12:56:46.489Z,99837.09
2022-09-06T12:59:17.632Z,99834.97
2022-09-06T13:02:01.552Z,99828.25
2022-09-06T13:04:38.241Z,99822.16
2022-09-06T13:07:11.483Z,99821.69
2022-09-06T13:09:43.845Z,99824.50
2022-09-06T13:12:24.812Z,99813.41
2022-09-06T13:14:54.289Z,99813.78
2022-09-06T13:17:27.925Z,99816.69
2022-09-06T13:19:58.168Z,99812.47
2022-09-06T13:22:43.705Z,99808.88
2022-09-06T13:25:20.661Z,99806.34
2022-09-06T13:27:51.216Z,99806.41
2022-09-06T13:30:37.928Z,99802.09
2022-09-06T13:33:08.006Z,99808.75
2022-09-06T13:35:38.518Z,99794.84
2022-09-06T13:38:32.841Z,99787.44
2022-09-06T13:41:13.482Z,99783.06
2022-09-06T13:43:45.975Z,99772.19
2022-09-06T13:46:14.977Z,99778.06
2022-09-06T13:48:44.637Z,99769.91
2022-09-06T13:51:13.650Z,99773.13
2022-09-06T13:53:43.737Z,99774.06
2022-09-06T13:56:12.633Z,99763.34
2022-09-06T13:58:41.249Z,99764.66
2022-09-06T14:01:10.938Z,99763.97
2022-09-06T14:03:42.794Z,99771.97
2022-09-06T14:06:12.576Z,99762.78
2022-09-06T14:09:05.921Z,99757.78
2022-09-06T14:11:31.621Z,99756.16
2022-09-06T14:14:00.555Z,99757.37
2022-09-06T14:16:29.356Z,99757.19
2022-09-06T14:18:58.037Z,99752.50
2022-09-06T14:21:26.961Z,99747.06
2022-09-06T14:24:02.037Z,99750.06
2022-09-06T14:26:33.187Z,99738.12
2022-09-06T14:29:02.072Z,99744.59
2022-09-06T14:31:35.189Z,99747.59
2022-09-06T14:34:05.006Z,99749.16
2022-09-06T14:36:34.681Z,99745.78
2022-09-06T14:39:05.491Z,99735.34
2022-09-06T14:41:34.463Z,99739.44
2022-09-06T14:44:03.989Z,99734.37
2022-09-06T14:46:32.688Z,99732.81
2022-09-06T14:49:03.014Z,99736.41
2022-09-06T14:51:31.884Z,99736.09
2022-09-06T14:54:03.233Z,99738.50
2022-09-06T14:56:33.614Z,99738.69
2022-09-06T14:59:02.219Z,99735.88
2022-09-06T15:01:37.880Z,99737.69
2022-09-06T15:04:08.691Z,99746.19
2022-09-06T15:06:39.921Z,99752.22
2022-09-06T15:09:11.420Z,99758.59
2022-09-06T15:11:44.355Z,99772.13
2022-09-06T15:14:16.062Z,99776.78
2022-09-06T15:16:45.002Z,99811.19
2022-09-06T15:19:14.044Z,99800.75
2022-09-06T15:21:42.796Z,99820.09
2022-09-06T15:24:12.324Z,99850.47
2022-09-06T15:26:44.929Z,99857.63
2022-09-06T15:29:14.267Z,99840.09
2022-09-06T15:31:44.885Z,99830.59
2022-09-06T15:34:14.500Z,99798.97
2022-09-06T15:36:43.437Z,99773.78
2022-09-06T15:39:12.174Z,99773.19
2022-09-06T15:41:41.288Z,99760.19
2022-09-06T15:44:13.072Z,99760.38
2022-09-06T15:46:50.040Z,99769.19
2022-09-06T15:49:24.370Z,99757.00
2022-09-06T15:51:56.183Z,99752.25
2022-09-06T15:54:45.175Z,99755.28
2022-09-06T15:57:16.222Z,99751.13
2022-09-06T15:59:46.661Z,99754.94
2022-09-06T16:02:15.587Z,99759.59
2022-09-06T16:04:44.480Z,99760.03
2022-09-06T16:07:13.529Z,99757.16
2022-09-06T16:09:42.551Z,99758.84
2022-09-06T16:12:11.771Z,99777.59
2022-09-06T16:14:40.360Z,99782.38
2022-09-06T16:17:12.308Z,99773.19
2022-09-06T16:19:41.245Z,99773.91
2022-09-06T16:22:10.137Z,99773.81
2022-09-06T16:24:38.770Z,99778.66
2022-09-06T16:27:07.697Z,99792.53
2022-09-06T16:29:36.343Z,99792.06
2022-09-06T16:32:04.972Z,99800.94
2022-09-06T16:34:35.218Z,99791.41
2022-09-06T16:37:07.871Z,99791.88
2022-09-06T16:39:36.945Z,99786.50
2022-09-06T16:42:05.673Z,99784.78
2022-09-06T16:44:34.296Z,99776.38
2022-09-06T16:47:04.166Z,99763.25
2022-09-06T16:49:32.828Z,99781.38
2022-09-06T16:52:02.942Z,99780.63
2022-09-06T16:54:31.881Z,99783.09
2022-09-06T16:57:02.655Z,99775.34
2022-09-06T16:59:31.260Z,99770.59
2022-09-06T17:02:00.376Z,99776.31
2022-09-06T17:04:29.379Z,99781.41
2022-09-06T17:06:57.954Z,99785.00
2022-09-06T17:09:28.264Z,99796.31
2022-09-06T17:11:56.884Z,99802.63
2022-09-06T17:14:25.763Z,99805.09
2022-09-06T17:17:05.931Z,99821.81
2022-09-06T17:19:39.439Z,99816.16
2022-09-06T17:22:10.097Z,99817.41
2022-09-06T17:24:40.567Z,99821.16
2022-09-06T17:27:09.991Z,99830.34
2022-09-06T17:29:40.210Z,99826.06
2022-09-06T17:32:10.508Z,99814.72
2022-09-06T17:34:40.040Z,99815.78
2022-09-06T17:37:09.409Z,99810.09
2022-09-06T17:39:38.612Z,99817.28
2022-09-06T17:42:09.055Z,99814.94
2022-09-06T17:44:38.145Z,99820.50
2022-09-06T17:47:14.550Z,99805.75
2022-09-06T17:49:43.923Z,99806.16
2022-09-06T17:52:12.890Z,99803.09
2022-09-06T17:54:41.644Z,99803.37
2022-09-06T17:57:12.167Z,99806.22
2022-09-06T17:59:41.075Z,99807.19
2022-09-06T18:02:10.279Z,99809.16
2022-09-06T18:04:39.747Z,99808.69
2022-09-06T18:07:08.683Z,99815.59
2022-09-06T18:09:37.988Z,99807.34
2022-09-06T18:12:07.346Z,99802.91
2022-09-06T18:14:37.892Z,99799.72
2022-09-06T18:17:08.767Z,99803.59
2022-09-06T18:19:38.824Z,99802.75
2022-09-06T18:22:07.792Z,99802.72
2022-09-06T18:24:36.795Z,99797.81
2022-09-06T18:27:07.290Z,99803.97
2022-09-06T18:29:37.608Z,99812.94
2022-09-06T18:32:07.673Z,99822.84
2022-09-06T18:34:36.761Z,99829.81
2022-09-06T18:37:06.135Z,99834.84
2022-09-06T18:39:35.389Z,99841.41
2022-09-06T18:42:11.402Z,99843.41
2022-09-06T18:44:42.048Z,99838.12
2022-09-06T18:47:12.856Z,99827.63
2022-09-06T18:49:44.373Z,99819.81
2022-09-06T18:52:13.563Z,99817.53
2022-09-06T18:54:44.017Z,99820.22
2022-09-06T18:57:13.159Z,99810.28
2022-09-06T18:59:43.842Z,99813.28
2022-09-06T19:02:13.153Z,99808.22
2022-09-06T19:04:42.213Z,99807.94
2022-09-06T19:07:11.271Z,99810.37
2022-09-06T19:09:40.388Z,99808.97
2022-09-06T19:12:12.234Z,99815.91
2022-09-06T19:14:41.405Z,99817.03
2022-09-06T19:17:11.980Z,99821.72
2022-09-06T19:19:41.174Z,99827.94
2022-09-06T19:22:10.469Z,99825.13
2022-09-06T19:24:40.216Z,99826.88
2022-09-06T19:27:09.378Z,99820.50
2022-09-06T19:29:38.742Z,99820.94
2022-09-06T19:32:08.065Z,99823.13
2022-09-06T19:34:41.003Z,99809.87
2022-09-06T19:37:10.197Z,99816.78
2022-09-06T19:39:39.259Z,99819.47
2022-09-06T19:42:42.687Z,99813.22
2022-09-06T19:45:12.977Z,99811.47
2022-09-06T19:47:41.667Z,99807.56
2022-09-06T19:50:11.953Z,99795.56
2022-09-06T19:52:41.259Z,99809.81
2022-09-06T19:55:10.838Z,99802.06
2022-09-06T19:57:40.214Z,99791.19
2022-09-06T20:00:10.794Z,99790.44
2022-09-06T20:02:40.767Z,99795.34
2022-09-06T20:05:11.729Z,99786.56
2022-09-06T20:07:40.754Z,99788.91
2022-09-06T20:10:11.189Z,99781.06
2022-09-06T20:12:40.184Z,99789.09
2022-09-06T20:15:10.500Z,99785.84
2022-09-06T20:17:39.728Z,99785.25
2022-09-06T20:20:09.348Z,99779.97
2022-09-06T20:22:39.780Z,99788.91
2022-09-06T20:25:09.810Z,99788.47
2022-09-06T20:27:41.381Z,99778.28
2022-09-06T20:30:13.752Z,99789.50
2022-09-06T20:32:42.665Z,99784.12
2022-09-06T20:35:14.252Z,99783.44
2022-09-06T20:37:44.751Z,99787.22
2022-09-06T20:40:14.304Z,99795.31
2022-09-06T20:42:46.293Z,99793.53
2022-09-06T20:45:15.665Z,99785.91
2022-09-06T20:47:44.894Z,99786.00
2022-09-06T20:50:13.884Z,99797.41
2022-09-06T20:52:44.317Z,99799.44
2022-09-06T20:55:13.639Z,99790.59
2022-09-06T20:57:42.678Z,99796.31
2022-09-06T21:00:14.479Z,99791.19
2022-09-06T21:02:43.553Z,99793.06
2022-09-06T21:05:12.146Z,99786.78
2022-09-06T21:07:40.754Z,99791.53
2022-09-06T21:10:11.671Z,99793.25
2022-09-06T21:12:40.288Z,99787.44
2022-09-06T21:15:10.061Z,99780.91
2022-09-06T21:17:38.933Z,99791.78
2022-09-06T21:20:08.934Z,99788.22
2022-09-06T21:22:41.551Z,99782.09
2022-09-06T21:25:12.296Z,99781.94
2022-09-06T21:27:40.983Z,99781.22
2022-09-06T21:30:10.986Z,99774.44
2022-09-06T21:32:39.686Z,99777.75
2022-09-06T21:35:09.273Z,99784.12
2022-09-06T21:37:38.184Z,99779.47
2022-09-06T21:40:08.129Z,99771.84
2022-09-06T21:42:38.443Z,99776.66
2022-09-06T21:45:07.792Z,99773.16
2022-09-06T21:47:36.507Z,99775.13
2022-09-06T21:50:06.031Z,99774.69
2022-09-06T21:52:34.570Z,99772.81
2022-09-06T21:55:03.191Z,99771.63
2022-09-06T21:57:32.066Z,99771.97
2022-09-06T22:00:02.071Z,99766.25
2022-09-06T22:02:34.116Z,99759.44
2022-09-06T22:05:06.489Z,99757.31
2022-09-06T22:07:37.014Z,99768.88
2022-09-06T22:10:06.493Z,99767.34
2022-09-06T22:12:35.086Z,99763.34
2022-09-06T22:15:05.708Z,99767.78
2022-09-06T22:17:34.581Z,99764.03
2022-09-06T22:20:03.488Z,99764.13
2022-09-06T22:22:32.503Z,99768.47
2022-09-06T22:25:01.351Z,99769.31
2022-09-06T22:27:29.981Z,99768.81
2022-09-06T22:29:58.600Z,99770.56
2022-09-06T22:32:28.821Z,99764.37
2022-09-06T22:34:57.420Z,99766.44
2022-09-06T22:37:26.151Z,99771.28
2022-09-06T22:39:55.281Z,99765.06
2022-09-06T22:42:23.972Z,99760.47
2022-09-06T22:44:53.011Z,99758.06
2022-09-06T22:47:22.061Z,99766.16
2022-09-06T22:49:52.779Z,99758.84
2022-09-06T22:52:21.402Z,99762.44
2022-09-06T22:54:52.497Z,99756.38
2022-09-06T22:57:21.063Z,99762.44
2022-09-06T22:59:49.950Z,99757.16
2022-09-06T23:02:18.556Z,99753.16
2022-09-06T23:04:47.202Z,99749.75
2022-09-06T23:07:17.476Z,99741.50
2022-09-06T23:09:46.083Z,99742.59
2022-09-06T23:12:14.682Z,99752.38
2022-09-06T23:14:43.521Z,99754.50
2022-09-06T23:17:14.104Z,99753.88
2022-09-06T23:19:42.978Z,99741.47
2022-09-06T23:22:12.042Z,99738.84
2022-09-06T23:24:42.763Z,99738.75
2022-09-06T23:27:11.643Z,99743.09
2022-09-06T23:29:41.094Z,99746.59
2022-09-06T23:32:09.700Z,99757.22
2022-09-06T23:34:38.618Z,99752.25
2022-09-06T23:37:07.306Z,99753.09
2022-09-06T23:39:35.976Z,99747.44
2022-09-06T23:42:06.411Z,99739.38
2022-09-06T23:44:35.040Z,99737.84
2022-09-06T23:47:03.707Z,99736.34
2022-09-06T23:49:32.688Z,99742.53
2022-09-06T23:52:01.316Z,99739.34
2022-09-06T23:54:29.899Z,99732.63
2022-09-06T23:56:58.771Z,99740.13
2022-09-06T23:59:28.682Z,99734.78
